createdAt,value
2017-04-25T00:00:10.999Z,0
2017-04-25T00:01:12.229Z,0
2017-04-25T00:02:13.462Z,0
2017-04-25T00:03:14.714Z,0
2017-04-25T00:04:15.963Z,0
2017-04-25T00:05:17.199Z,0
2017-04-25T00:06:18.452Z,0
2017-04-25T00:07:19.697Z,0
2017-04-25T00:08:20.975Z,0
2017-04-25T00:09:22.267Z,0
2017-04-25T00:10:23.498Z,0
2017-04-25T00:11:24.743Z,0
2017-04-25T00:12:25.977Z,0
2017-04-25T00:13:27.243Z,0
2017-04-25T00:14:28.494Z,0
2017-04-25T00:15:29.748Z,0
2017-04-25T00:16:30.963Z,0
2017-04-25T00:17:32.220Z,0
2017-04-25T00:18:33.463Z,0
2017-04-25T00:19:34.761Z,0
2017-04-25T00:20:36.002Z,0
2017-04-25T00:21:37.348Z,0
2017-04-25T00:22:38.622Z,0
2017-04-25T00:23:39.886Z,0
2017-04-25T00:24:41.106Z,0
2017-04-25T00:25:42.337Z,0
2017-04-25T00:26:43.571Z,0
2017-04-25T00:27:44.854Z,0
2017-04-25T00:28:46.096Z,0
2017-04-25T00:29:47.340Z,0
2017-04-25T00:30:48.582Z,0
2017-04-25T00:31:49.818Z,0
2017-04-25T00:32:51.058Z,0
2017-04-25T00:33:52.308Z,0
2017-04-25T00:34:53.553Z,0
2017-04-25T00:35:54.774Z,0
2017-04-25T00:36:56.007Z,0
2017-04-25T00:37:57.274Z,0
2017-04-25T00:38:58.556Z,0
2017-04-25T00:39:59.772Z,0
2017-04-25T00:41:01.013Z,0
2017-04-25T00:42:02.312Z,0
2017-04-25T00:43:03.559Z,0
2017-04-25T00:44:04.783Z,0
2017-04-25T00:45:06.032Z,0
2017-04-25T00:46:07.309Z,0
2017-04-25T00:47:08.597Z,0
2017-04-25T00:48:09.947Z,0
2017-04-25T00:49:11.237Z,0
2017-04-25T00:50:12.449Z,0
2017-04-25T00:51:13.689Z,0
2017-04-25T00:52:14.924Z,0
2017-04-25T00:53:16.210Z,0
2017-04-25T00:54:17.443Z,0
2017-04-25T00:55:18.744Z,0
2017-04-25T00:56:20.010Z,0
2017-04-25T00:57:21.261Z,0
2017-04-25T00:58:22.489Z,0
2017-04-25T00:59:23.770Z,0
2017-04-25T01:00:25.007Z,0
2017-04-25T01:01:26.364Z,0
2017-04-25T01:02:27.593Z,0
2017-04-25T01:03:28.834Z,0
2017-04-25T01:04:30.104Z,0
2017-04-25T01:05:31.322Z,0
2017-04-25T01:06:32.615Z,0
2017-04-25T01:07:33.853Z,0
2017-04-25T01:08:35.105Z,0
2017-04-25T01:09:36.324Z,0
2017-04-25T01:10:37.629Z,0
2017-04-25T01:11:38.928Z,0
2017-04-25T01:12:40.167Z,0
2017-04-25T01:13:41.408Z,0
2017-04-25T01:14:42.693Z,0
2017-04-25T01:15:43.918Z,0
2017-04-25T01:16:45.232Z,0
2017-04-25T01:17:46.450Z,0
2017-04-25T01:18:47.708Z,0
2017-04-25T01:19:48.952Z,0
2017-04-25T01:20:50.194Z,0
2017-04-25T01:21:51.427Z,0
2017-04-25T01:22:52.682Z,0
2017-04-25T01:23:53.908Z,0
2017-04-25T01:24:55.145Z,0
2017-04-25T01:25:56.396Z,0
2017-04-25T01:26:57.628Z,0
2017-04-25T01:27:58.881Z,0
2017-04-25T01:29:00.121Z,0
2017-04-25T01:30:01.442Z,0
2017-04-25T01:31:02.758Z,0
2017-04-25T01:32:04.054Z,0
2017-04-25T01:33:05.313Z,0
2017-04-25T01:34:06.615Z,0
2017-04-25T01:35:07.870Z,0
2017-04-25T01:36:09.204Z,0
2017-04-25T01:37:10.468Z,0
2017-04-25T01:38:11.801Z,0
2017-04-25T01:39:13.046Z,0
2017-04-25T01:40:14.292Z,0
2017-04-25T01:41:15.609Z,0
2017-04-25T01:42:16.923Z,0
2017-04-25T01:43:18.188Z,0
2017-04-25T01:44:19.421Z,0
2017-04-25T01:45:20.762Z,0
2017-04-25T01:46:22.030Z,0
2017-04-25T01:47:23.261Z,0
2017-04-25T01:48:24.540Z,0
2017-04-25T01:49:25.937Z,0
2017-04-25T01:50:27.170Z,0
2017-04-25T01:51:28.465Z,0
2017-04-25T01:52:29.715Z,0
2017-04-25T01:53:30.965Z,0
2017-04-25T01:54:32.203Z,0
2017-04-25T01:55:33.458Z,0
2017-04-25T01:56:34.769Z,0
2017-04-25T01:57:36.061Z,0
2017-04-25T01:58:37.273Z,0
2017-04-25T01:59:38.579Z,0
2017-04-25T02:00:39.787Z,0
2017-04-25T02:01:41.087Z,0
2017-04-25T02:02:42.327Z,0
2017-04-25T02:03:43.609Z,0
2017-04-25T02:04:44.868Z,0
2017-04-25T02:05:46.109Z,0
2017-04-25T02:06:47.413Z,0
2017-04-25T02:07:48.648Z,0
2017-04-25T02:08:49.958Z,0
2017-04-25T02:09:51.184Z,0
2017-04-25T02:10:52.540Z,0
2017-04-25T02:11:53.780Z,0
2017-04-25T02:12:55.132Z,0
2017-04-25T02:13:56.445Z,0
2017-04-25T02:14:57.697Z,0
2017-04-25T02:15:58.936Z,0
2017-04-25T02:17:00.208Z,0
2017-04-25T02:18:01.545Z,0
2017-04-25T02:19:02.811Z,0
2017-04-25T02:20:04.046Z,0
2017-04-25T02:21:05.300Z,0
2017-04-25T02:22:06.543Z,0
2017-04-25T02:23:07.809Z,0
2017-04-25T02:24:09.018Z,0
2017-04-25T02:25:10.333Z,0
2017-04-25T02:26:11.585Z,0
2017-04-25T02:27:12.860Z,0
2017-04-25T02:28:14.097Z,0
2017-04-25T02:29:15.341Z,0
2017-04-25T02:30:16.565Z,0
2017-04-25T02:31:17.802Z,0
2017-04-25T02:32:19.054Z,0
2017-04-25T02:33:20.294Z,0
2017-04-25T02:34:21.543Z,0
2017-04-25T02:35:22.890Z,0
2017-04-25T02:36:24.135Z,0
2017-04-25T02:37:25.405Z,0
2017-04-25T02:38:26.763Z,0
2017-04-25T02:39:28.014Z,0
2017-04-25T02:40:29.243Z,0
2017-04-25T02:41:30.542Z,0
2017-04-25T02:42:31.767Z,0
2017-04-25T02:43:33.013Z,0
2017-04-25T02:44:34.381Z,0
2017-04-25T02:45:35.745Z,0
2017-04-25T02:46:36.884Z,0
2017-04-25T02:47:38.125Z,0
2017-04-25T02:48:39.371Z,0
2017-04-25T02:49:40.658Z,0
2017-04-25T02:50:41.912Z,0
2017-04-25T02:51:43.232Z,0
2017-04-25T02:52:44.480Z,0
2017-04-25T02:53:45.725Z,0
2017-04-25T02:54:46.970Z,0
2017-04-25T02:55:48.209Z,0
2017-04-25T02:56:49.456Z,0
2017-04-25T02:57:50.794Z,0
2017-04-25T02:58:52.001Z,0
2017-04-25T02:59:53.269Z,0
2017-04-25T03:00:54.501Z,0
2017-04-25T03:01:55.751Z,0
2017-04-25T03:02:57.044Z,0
2017-04-25T03:03:58.395Z,0
2017-04-25T03:04:59.648Z,0
2017-04-25T03:06:00.923Z,0
2017-04-25T03:07:02.146Z,0
2017-04-25T03:08:03.399Z,0
2017-04-25T03:09:04.622Z,0
2017-04-25T03:10:06.007Z,0
2017-04-25T03:11:07.174Z,0
2017-04-25T03:12:08.439Z,0
2017-04-25T03:13:09.652Z,0
2017-04-25T03:14:10.879Z,0
2017-04-25T03:15:12.143Z,0
2017-04-25T03:16:13.419Z,0
2017-04-25T03:17:14.639Z,0
2017-04-25T03:18:15.999Z,0
2017-04-25T03:19:17.242Z,0
2017-04-25T03:20:18.479Z,0
2017-04-25T03:21:19.715Z,0
2017-04-25T03:22:21.202Z,0
2017-04-25T03:23:22.513Z,0
2017-04-25T03:24:23.731Z,0
2017-04-25T03:25:25.019Z,0
2017-04-25T03:26:26.275Z,0
2017-04-25T03:27:27.555Z,0
2017-04-25T03:28:28.800Z,0
2017-04-25T03:29:30.033Z,0
2017-04-25T03:30:31.306Z,0
2017-04-25T03:31:32.655Z,0
2017-04-25T03:32:33.899Z,0
2017-04-25T03:33:35.193Z,0
2017-04-25T03:34:36.508Z,0
2017-04-25T03:35:37.737Z,0
2017-04-25T03:36:39.005Z,0
2017-04-25T03:37:40.266Z,0
2017-04-25T03:38:41.503Z,0
2017-04-25T03:39:42.790Z,0
2017-04-25T03:40:43.958Z,0
2017-04-25T03:41:45.190Z,0
2017-04-25T03:42:46.508Z,4
2017-04-25T03:43:47.725Z,4
2017-04-25T03:44:48.999Z,4
2017-04-25T03:45:50.201Z,4
2017-04-25T03:46:51.506Z,0
2017-04-25T03:47:52.826Z,4
2017-04-25T03:48:54.091Z,4
2017-04-25T03:49:55.333Z,4
2017-04-25T03:50:56.592Z,4
2017-04-25T03:51:57.860Z,4
2017-04-25T03:52:59.106Z,4
2017-04-25T03:54:00.387Z,4
2017-04-25T03:55:01.618Z,4
2017-04-25T03:56:02.857Z,4
2017-04-25T03:57:04.125Z,4
2017-04-25T03:58:05.371Z,4
2017-04-25T03:59:06.609Z,8
2017-04-25T04:00:07.841Z,12
2017-04-25T04:01:09.107Z,16
2017-04-25T04:02:10.327Z,16
2017-04-25T04:03:11.556Z,24
2017-04-25T04:04:12.833Z,28
2017-04-25T04:05:14.091Z,28
2017-04-25T04:06:15.339Z,36
2017-04-25T04:07:16.579Z,40
2017-04-25T04:08:17.842Z,48
2017-04-25T04:09:19.184Z,56
2017-04-25T04:10:20.536Z,64
2017-04-25T04:11:21.781Z,60
2017-04-25T04:12:23.021Z,60
2017-04-25T04:13:24.254Z,68
2017-04-25T04:14:25.491Z,76
2017-04-25T04:15:26.719Z,84
2017-04-25T04:16:27.963Z,88
2017-04-25T04:17:29.198Z,96
2017-04-25T04:18:30.440Z,92
2017-04-25T04:19:31.677Z,124
2017-04-25T04:20:33.036Z,140
2017-04-25T04:21:34.275Z,124
2017-04-25T04:22:35.505Z,152
2017-04-25T04:23:36.782Z,180
2017-04-25T04:24:38.059Z,184
2017-04-25T04:25:39.333Z,168
2017-04-25T04:26:40.574Z,172
2017-04-25T04:27:41.799Z,196
2017-04-25T04:28:43.036Z,244
2017-04-25T04:29:44.283Z,304
2017-04-25T04:30:45.619Z,284
2017-04-25T04:31:46.889Z,364
2017-04-25T04:32:48.127Z,388
2017-04-25T04:33:49.413Z,384
2017-04-25T04:34:50.635Z,436
2017-04-25T04:35:51.941Z,432
2017-04-25T04:36:53.161Z,468
2017-04-25T04:37:54.544Z,472
2017-04-25T04:38:55.731Z,448
2017-04-25T04:39:56.970Z,336
2017-04-25T04:40:58.209Z,380
2017-04-25T04:41:59.446Z,336
2017-04-25T04:43:00.737Z,308
2017-04-25T04:44:01.934Z,516
2017-04-25T04:45:03.279Z,500
2017-04-25T04:46:04.568Z,496
2017-04-25T04:47:05.793Z,492
2017-04-25T04:48:07.030Z,500
2017-04-25T04:49:08.266Z,472
2017-04-25T04:50:09.512Z,764
2017-04-25T04:51:10.889Z,828
2017-04-25T04:52:12.091Z,800
2017-04-25T04:53:13.350Z,748
2017-04-25T04:54:14.576Z,684
2017-04-25T04:55:15.807Z,652
2017-04-25T04:56:17.053Z,548
2017-04-25T04:57:18.315Z,588
2017-04-25T04:58:19.544Z,924
2017-04-25T04:59:20.793Z,1352
2017-04-25T05:00:22.030Z,1652
2017-04-25T05:01:23.260Z,1808
2017-04-25T05:02:24.523Z,1792
2017-04-25T05:03:25.772Z,1660
2017-04-25T05:04:27.052Z,1480
2017-04-25T05:05:28.422Z,1676
2017-04-25T05:06:29.673Z,1312
2017-04-25T05:07:30.951Z,1620
2017-04-25T05:08:32.205Z,1344
2017-04-25T05:09:33.582Z,1448
2017-04-25T05:10:34.829Z,1576
2017-04-25T05:11:36.098Z,1444
2017-04-25T05:12:37.326Z,1668
2017-04-25T05:13:38.638Z,2052
2017-04-25T05:14:39.876Z,2236
2017-04-25T05:15:41.245Z,2244
2017-04-25T05:16:42.570Z,2320
2017-04-25T05:17:43.825Z,2008
2017-04-25T05:18:45.067Z,1796
2017-04-25T05:19:46.310Z,1548
2017-04-25T05:20:47.583Z,1932
2017-04-25T05:21:48.810Z,2296
2017-04-25T05:22:50.050Z,2164
2017-04-25T05:23:51.292Z,2136
2017-04-25T05:24:52.559Z,2164
2017-04-25T05:25:53.822Z,2368
2017-04-25T05:26:55.055Z,2876
2017-04-25T05:27:56.291Z,2492
2017-04-25T05:28:57.545Z,2328
2017-04-25T05:29:58.974Z,2256
2017-04-25T05:31:00.207Z,2516
2017-04-25T05:32:01.446Z,2576
2017-04-25T05:33:02.697Z,2768
2017-04-25T05:34:03.938Z,2964
2017-04-25T05:35:05.198Z,3496
2017-04-25T05:36:06.466Z,3568
2017-04-25T05:37:07.705Z,3352
2017-04-25T05:38:09.042Z,3860
2017-04-25T05:39:10.273Z,4168
2017-04-25T05:40:11.550Z,5432
2017-04-25T05:41:12.809Z,7120
2017-04-25T05:42:14.092Z,6492
2017-04-25T05:43:15.427Z,7300
2017-04-25T05:44:16.791Z,9348
2017-04-25T05:45:18.021Z,11376
2017-04-25T05:46:19.374Z,12496
2017-04-25T05:47:20.677Z,11584
2017-04-25T05:48:21.920Z,12364
2017-04-25T05:49:23.164Z,12780
2017-04-25T05:50:24.507Z,13468
2017-04-25T05:51:25.746Z,13564
2017-04-25T05:52:27.049Z,14176
2017-04-25T05:53:28.382Z,15872
2017-04-25T05:54:29.590Z,15616
2017-04-25T05:55:30.832Z,13096
2017-04-25T05:56:32.078Z,12604
2017-04-25T05:57:33.309Z,16064
2017-04-25T05:58:34.612Z,10344
2017-04-25T05:59:35.847Z,10984
2017-04-25T06:00:37.129Z,12604
2017-04-25T06:01:38.406Z,17376
2017-04-25T06:02:39.671Z,10752
2017-04-25T06:03:40.910Z,9144
2017-04-25T06:04:42.151Z,7360
2017-04-25T06:05:43.426Z,6668
2017-04-25T06:06:44.659Z,6904
2017-04-25T06:07:45.904Z,7684
2017-04-25T06:08:47.140Z,8852
2017-04-25T06:09:48.383Z,9832
2017-04-25T06:10:49.625Z,9100
2017-04-25T06:11:50.868Z,10596
2017-04-25T06:12:52.119Z,14256
2017-04-25T06:13:53.414Z,10880
2017-04-25T06:14:54.655Z,11536
2017-04-25T06:15:55.899Z,10236
2017-04-25T06:16:57.180Z,10000
2017-04-25T06:17:58.463Z,10276
2017-04-25T06:18:59.628Z,9492
2017-04-25T06:20:01.026Z,9896
2017-04-25T06:21:02.315Z,9268
2017-04-25T06:22:03.515Z,9516
2017-04-25T06:23:04.755Z,9920
2017-04-25T06:24:05.988Z,10412
2017-04-25T06:25:07.257Z,11044
2017-04-25T06:26:08.509Z,14792
2017-04-25T06:27:09.754Z,10280
2017-04-25T06:28:11.011Z,9984
2017-04-25T06:29:12.246Z,9992
2017-04-25T06:30:13.481Z,8824
2017-04-25T06:31:14.733Z,8004
2017-04-25T06:32:15.982Z,7844
2017-04-25T06:33:17.434Z,9716
2017-04-25T06:34:18.673Z,11016
2017-04-25T06:35:19.941Z,11992
2017-04-25T06:36:21.151Z,13260
2017-04-25T06:37:22.518Z,11448
2017-04-25T06:38:23.789Z,8256
2017-04-25T06:39:25.129Z,9604
2017-04-25T06:40:26.375Z,11220
2017-04-25T06:41:27.622Z,30816
2017-04-25T06:42:28.905Z,13364
2017-04-25T06:43:30.262Z,25728
2017-04-25T06:44:31.549Z,24896
2017-04-25T06:45:32.806Z,14100
2017-04-25T06:46:34.051Z,39840
2017-04-25T06:47:35.288Z,17344
2017-04-25T06:48:36.556Z,33248
2017-04-25T06:49:37.790Z,35648
2017-04-25T06:50:39.138Z,25856
2017-04-25T06:51:40.413Z,9512
2017-04-25T06:52:41.641Z,33216
2017-04-25T06:53:42.882Z,34880
2017-04-25T06:54:44.129Z,34880
2017-04-25T06:55:45.480Z,34688
2017-04-25T06:56:46.735Z,28128
2017-04-25T06:57:47.998Z,25376
2017-04-25T06:58:49.251Z,24704
2017-04-25T06:59:50.508Z,19680
2017-04-25T07:00:51.751Z,30720
2017-04-25T07:01:53.037Z,31584
2017-04-25T07:02:54.394Z,35488
2017-04-25T07:03:55.612Z,34944
2017-04-25T07:04:56.907Z,34304
2017-04-25T07:05:58.170Z,34592
2017-04-25T07:06:59.591Z,36064
2017-04-25T07:08:00.865Z,41760
2017-04-25T07:09:02.224Z,38560
2017-04-25T07:10:03.479Z,8016
2017-04-25T07:11:04.708Z,6868
2017-04-25T07:12:05.951Z,12700
2017-04-25T07:13:07.209Z,11280
2017-04-25T07:14:08.502Z,11080
2017-04-25T07:15:09.724Z,8944
2017-04-25T07:16:11.027Z,10240
2017-04-25T07:17:12.289Z,9136
2017-04-25T07:18:13.652Z,9488
2017-04-25T07:19:14.880Z,35808
2017-04-25T07:20:16.147Z,45888
2017-04-25T07:21:17.398Z,50048
2017-04-25T07:22:18.677Z,51488
2017-04-25T07:23:19.928Z,52512
2017-04-25T07:24:21.166Z,32992
2017-04-25T07:25:22.513Z,10308
2017-04-25T07:26:23.773Z,10536
2017-04-25T07:27:25.014Z,12356
2017-04-25T07:28:26.267Z,13508
2017-04-25T07:29:27.504Z,12088
2017-04-25T07:30:28.773Z,19264
2017-04-25T07:31:30.018Z,21984
2017-04-25T07:32:31.339Z,24352
2017-04-25T07:33:32.622Z,29120
2017-04-25T07:34:33.837Z,9700
2017-04-25T07:35:35.094Z,11924
2017-04-25T07:36:36.359Z,13632
2017-04-25T07:37:37.628Z,13980
2017-04-25T07:38:38.909Z,60480
2017-04-25T07:39:40.148Z,26368
2017-04-25T07:40:41.404Z,9416
2017-04-25T07:41:42.775Z,7664
2017-04-25T07:42:44.013Z,7312
2017-04-25T07:43:45.262Z,57120
2017-04-25T07:44:46.576Z,59712
2017-04-25T07:45:47.787Z,58336
2017-04-25T07:46:49.053Z,57792
2017-04-25T07:47:50.303Z,59328
2017-04-25T07:48:51.546Z,60224
2017-04-25T07:49:52.832Z,60192
2017-04-25T07:50:54.046Z,46080
2017-04-25T07:51:55.304Z,60800
2017-04-25T07:52:56.561Z,63680
2017-04-25T07:53:57.776Z,64800
2017-04-25T07:54:59.029Z,63360
2017-04-25T07:56:00.312Z,62208
2017-04-25T07:57:01.531Z,62080
2017-04-25T07:58:02.772Z,61824
2017-04-25T07:59:04.016Z,60032
2017-04-25T08:00:05.271Z,63392
2017-04-25T08:01:06.594Z,65760
2017-04-25T08:02:07.866Z,61376
2017-04-25T08:03:09.134Z,60448
2017-04-25T08:04:10.382Z,16256
2017-04-25T08:05:11.624Z,53888
2017-04-25T08:06:12.897Z,19264
2017-04-25T08:07:14.144Z,18048
2017-04-25T08:08:15.401Z,45824
2017-04-25T08:09:16.670Z,55040
2017-04-25T08:10:17.900Z,15264
2017-04-25T08:11:19.172Z,9552
2017-04-25T08:12:20.487Z,7684
2017-04-25T08:13:21.760Z,13328
2017-04-25T08:14:23.058Z,58688
2017-04-25T08:15:24.248Z,8224
2017-04-25T08:16:25.526Z,9356
2017-04-25T08:17:26.800Z,9792
2017-04-25T08:18:28.087Z,56576
2017-04-25T08:19:29.355Z,58080
2017-04-25T08:20:30.585Z,12172
2017-04-25T08:21:31.834Z,11300
2017-04-25T08:22:33.068Z,14652
2017-04-25T08:23:34.405Z,12296
2017-04-25T08:24:35.650Z,13700
2017-04-25T08:25:36.981Z,15860
2017-04-25T08:26:38.224Z,11588
2017-04-25T08:27:39.462Z,7404
2017-04-25T08:28:40.730Z,9124
2017-04-25T08:29:42.005Z,7976
2017-04-25T08:30:43.286Z,10672
2017-04-25T08:31:44.541Z,9256
2017-04-25T08:32:45.810Z,7732
2017-04-25T08:33:47.043Z,6876
2017-04-25T08:34:48.293Z,6476
2017-04-25T08:35:49.613Z,8336
2017-04-25T08:36:50.992Z,11208
2017-04-25T08:37:52.227Z,77792
2017-04-25T08:38:53.458Z,79904
2017-04-25T08:39:54.727Z,18912
2017-04-25T08:40:55.964Z,17696
2017-04-25T08:41:57.233Z,13280
2017-04-25T08:42:58.527Z,9948
2017-04-25T08:43:59.770Z,10664
2017-04-25T08:45:01.023Z,9912
2017-04-25T08:46:02.269Z,14576
2017-04-25T08:47:03.542Z,21984
2017-04-25T08:48:04.780Z,56000
2017-04-25T08:49:06.137Z,23360
2017-04-25T08:50:07.288Z,26944
2017-04-25T08:51:08.538Z,18368
2017-04-25T08:52:09.812Z,30176
2017-04-25T08:53:11.050Z,86560
2017-04-25T08:54:12.292Z,20864
2017-04-25T08:55:13.592Z,86208
2017-04-25T08:56:14.873Z,84896
2017-04-25T08:57:16.238Z,26112
2017-04-25T08:58:17.488Z,15892
2017-04-25T08:59:18.722Z,17504
2017-04-25T09:00:19.982Z,78464
2017-04-25T09:01:21.245Z,15984
2017-04-25T09:02:22.520Z,21664
2017-04-25T09:03:23.786Z,15356
2017-04-25T09:04:25.066Z,17344
2017-04-25T09:05:26.322Z,21824
2017-04-25T09:06:27.594Z,9560
2017-04-25T09:07:29.036Z,12584
2017-04-25T09:08:30.273Z,32384
2017-04-25T09:09:31.513Z,11912
2017-04-25T09:10:32.770Z,11576
2017-04-25T09:11:34.022Z,10268
2017-04-25T09:12:35.274Z,13452
2017-04-25T09:13:36.523Z,84192
2017-04-25T09:14:37.774Z,88352
2017-04-25T09:15:39.022Z,72384
2017-04-25T09:16:40.275Z,24512
2017-04-25T09:17:41.501Z,28736
2017-04-25T09:18:42.819Z,21248
2017-04-25T09:19:44.029Z,86048
2017-04-25T09:20:45.384Z,40128
2017-04-25T09:21:46.660Z,83072
2017-04-25T09:22:47.929Z,89088
2017-04-25T09:23:49.207Z,101216
2017-04-25T09:24:50.450Z,97312
2017-04-25T09:25:51.699Z,92416
2017-04-25T09:26:53.081Z,74464
2017-04-25T09:27:54.334Z,93504
2017-04-25T09:28:55.583Z,73056
2017-04-25T09:29:56.853Z,39328
2017-04-25T09:30:58.148Z,36256
2017-04-25T09:31:59.506Z,23072
2017-04-25T09:33:00.831Z,20928
2017-04-25T09:34:02.091Z,22080
2017-04-25T09:35:03.375Z,45504
2017-04-25T09:36:04.602Z,18656
2017-04-25T09:37:05.855Z,38816
2017-04-25T09:38:07.107Z,106656
2017-04-25T09:39:08.366Z,108032
2017-04-25T09:40:09.628Z,110336
2017-04-25T09:41:10.867Z,115744
2017-04-25T09:42:12.120Z,32448
2017-04-25T09:43:13.371Z,44480
2017-04-25T09:44:14.624Z,97344
2017-04-25T09:45:15.885Z,18528
2017-04-25T09:46:17.158Z,23904
2017-04-25T09:47:18.439Z,80384
2017-04-25T09:48:19.696Z,93312
2017-04-25T09:49:20.940Z,82240
2017-04-25T09:50:22.226Z,111520
2017-04-25T09:51:23.448Z,89024
2017-04-25T09:52:24.776Z,15280
2017-04-25T09:53:26.027Z,19264
2017-04-25T09:54:27.280Z,27584
2017-04-25T09:55:28.540Z,111744
2017-04-25T09:56:29.909Z,111040
2017-04-25T09:57:31.173Z,105664
2017-04-25T09:58:32.435Z,44448
2017-04-25T09:59:33.700Z,102656
2017-04-25T10:00:34.948Z,26208
2017-04-25T10:01:36.215Z,44320
2017-04-25T10:02:37.589Z,54176
2017-04-25T10:03:38.816Z,24544
2017-04-25T10:04:40.081Z,16384
2017-04-25T10:05:41.366Z,12052
2017-04-25T10:06:42.631Z,10560
2017-04-25T10:07:43.893Z,8044
2017-04-25T10:08:45.151Z,7108
2017-04-25T10:09:46.404Z,10676
2017-04-25T10:10:47.711Z,12984
2017-04-25T10:11:49.069Z,12836
2017-04-25T10:12:50.311Z,12580
2017-04-25T10:13:51.586Z,12540
2017-04-25T10:14:52.835Z,11656
2017-04-25T10:15:54.088Z,15480
2017-04-25T10:16:55.327Z,13340
2017-04-25T10:17:56.578Z,14164
2017-04-25T10:18:57.875Z,12984
2017-04-25T10:19:59.130Z,12460
2017-04-25T10:21:00.381Z,14064
2017-04-25T10:22:01.649Z,12432
2017-04-25T10:23:02.937Z,8560
2017-04-25T10:24:04.203Z,5868
2017-04-25T10:25:05.477Z,4720
2017-04-25T10:26:06.724Z,3948
2017-04-25T10:27:08.002Z,3540
2017-04-25T10:28:09.276Z,4772
2017-04-25T10:29:10.553Z,8088
2017-04-25T10:30:11.769Z,10388
2017-04-25T10:31:13.018Z,9748
2017-04-25T10:32:14.271Z,16372
2017-04-25T10:33:15.523Z,21760
2017-04-25T10:34:16.794Z,48800
2017-04-25T10:35:18.033Z,82272
2017-04-25T10:36:19.398Z,20768
2017-04-25T10:37:20.654Z,21152
2017-04-25T10:38:21.912Z,18400
2017-04-25T10:39:23.166Z,19296
2017-04-25T10:40:24.407Z,18688
2017-04-25T10:41:25.678Z,15448
2017-04-25T10:42:26.971Z,17984
2017-04-25T10:43:28.211Z,19328
2017-04-25T10:44:29.449Z,19712
2017-04-25T10:45:30.872Z,15624
2017-04-25T10:46:32.110Z,16096
2017-04-25T10:47:33.348Z,13944
2017-04-25T10:48:34.695Z,9520
2017-04-25T10:49:35.934Z,11044
2017-04-25T10:50:37.182Z,7604
2017-04-25T10:51:38.404Z,7088
2017-04-25T10:52:39.689Z,6968
2017-04-25T10:53:40.956Z,11612
2017-04-25T10:54:42.272Z,9252
2017-04-25T10:55:43.504Z,6020
2017-04-25T10:56:44.747Z,5536
2017-04-25T10:57:46.006Z,5296
2017-04-25T10:58:47.262Z,6616
2017-04-25T10:59:48.506Z,8700
2017-04-25T11:00:49.755Z,7136
2017-04-25T11:01:51.006Z,6560
2017-04-25T11:02:52.289Z,6484
2017-04-25T11:03:53.505Z,7028
2017-04-25T11:04:54.885Z,9960
2017-04-25T11:05:56.198Z,7960
2017-04-25T11:06:57.501Z,7116
2017-04-25T11:07:58.778Z,9420
2017-04-25T11:09:00.011Z,11384
2017-04-25T11:10:01.251Z,11712
2017-04-25T11:11:02.509Z,15060
2017-04-25T11:12:03.753Z,15620
2017-04-25T11:13:05.073Z,10416
2017-04-25T11:14:06.296Z,5652
2017-04-25T11:15:07.535Z,3632
2017-04-25T11:16:08.855Z,2796
2017-04-25T11:17:10.050Z,2496
2017-04-25T11:18:11.299Z,2016
2017-04-25T11:19:12.684Z,1956
2017-04-25T11:20:13.921Z,2368
2017-04-25T11:21:15.171Z,2976
2017-04-25T11:22:16.420Z,3640
2017-04-25T11:23:17.679Z,3672
2017-04-25T11:24:19.031Z,2784
2017-04-25T11:25:20.298Z,2292
2017-04-25T11:26:21.513Z,2196
2017-04-25T11:27:22.861Z,3036
2017-04-25T11:28:24.101Z,3276
2017-04-25T11:29:25.327Z,3528
2017-04-25T11:30:26.675Z,3664
2017-04-25T11:31:27.930Z,4632
2017-04-25T11:32:29.179Z,5652
2017-04-25T11:33:30.422Z,7440
2017-04-25T11:34:31.651Z,9012
2017-04-25T11:35:32.945Z,10232
2017-04-25T11:36:34.192Z,11980
2017-04-25T11:37:35.461Z,14396
2017-04-25T11:38:36.733Z,15712
2017-04-25T11:39:37.972Z,16832
2017-04-25T11:40:39.215Z,16120
2017-04-25T11:41:40.470Z,13444
2017-04-25T11:42:41.701Z,11264
2017-04-25T11:43:42.956Z,8088
2017-04-25T11:44:44.202Z,6344
2017-04-25T11:45:45.452Z,5436
2017-04-25T11:46:46.686Z,4960
2017-04-25T11:47:47.927Z,4700
2017-04-25T11:48:49.206Z,4476
2017-04-25T11:49:50.487Z,4308
2017-04-25T11:50:51.734Z,4252
2017-04-25T11:51:53.044Z,4328
2017-04-25T11:52:54.304Z,4452
2017-04-25T11:53:55.543Z,4376
2017-04-25T11:54:56.856Z,4352
2017-04-25T11:55:58.041Z,4388
2017-04-25T11:56:59.322Z,4500
2017-04-25T11:58:00.599Z,4656
2017-04-25T11:59:01.860Z,4928
2017-04-25T12:00:03.071Z,5384
2017-04-25T12:01:04.335Z,6756
2017-04-25T12:02:05.591Z,7764
2017-04-25T12:03:06.815Z,8640
2017-04-25T12:04:08.056Z,9924
2017-04-25T12:05:09.310Z,9940
2017-04-25T12:06:10.543Z,10908
2017-04-25T12:07:11.835Z,10132
2017-04-25T12:08:13.143Z,8336
2017-04-25T12:09:14.399Z,6920
2017-04-25T12:10:15.617Z,6948
2017-04-25T12:11:16.887Z,9760
2017-04-25T12:12:18.210Z,12048
2017-04-25T12:13:19.436Z,11436
2017-04-25T12:14:20.710Z,10316
2017-04-25T12:15:21.967Z,9680
2017-04-25T12:16:23.373Z,7620
2017-04-25T12:17:24.626Z,6124
2017-04-25T12:18:25.873Z,5196
2017-04-25T12:19:27.112Z,4524
2017-04-25T12:20:28.343Z,4168
2017-04-25T12:21:29.582Z,4140
2017-04-25T12:22:30.872Z,3944
2017-04-25T12:23:32.102Z,4020
2017-04-25T12:24:33.339Z,4588
2017-04-25T12:25:34.587Z,5784
2017-04-25T12:26:35.838Z,6044
2017-04-25T12:27:37.090Z,7428
2017-04-25T12:28:38.341Z,6880
2017-04-25T12:29:39.584Z,7116
2017-04-25T12:30:40.817Z,6828
2017-04-25T12:31:42.064Z,6760
2017-04-25T12:32:43.311Z,6756
2017-04-25T12:33:44.575Z,6532
2017-04-25T12:34:45.801Z,7008
2017-04-25T12:35:47.055Z,7820
2017-04-25T12:36:48.297Z,8524
2017-04-25T12:37:49.587Z,9140
2017-04-25T12:38:50.824Z,11044
2017-04-25T12:39:52.326Z,13812
2017-04-25T12:40:53.752Z,12284
2017-04-25T12:41:55.055Z,10660
2017-04-25T12:42:56.285Z,8372
2017-04-25T12:43:57.531Z,14952
2017-04-25T12:44:58.833Z,13952
2017-04-25T12:46:00.091Z,12932
2017-04-25T12:47:01.443Z,13676
2017-04-25T12:48:02.789Z,13572
2017-04-25T12:49:04.042Z,12960
2017-04-25T12:50:05.277Z,9028
2017-04-25T12:51:06.683Z,6352
2017-04-25T12:52:07.824Z,5672
2017-04-25T12:53:09.106Z,5076
2017-04-25T12:54:10.363Z,5372
2017-04-25T12:55:11.622Z,5252
2017-04-25T12:56:12.834Z,4932
2017-04-25T12:57:14.075Z,4760
2017-04-25T12:58:15.516Z,4692
2017-04-25T12:59:16.766Z,5028
2017-04-25T13:00:18.035Z,5384
2017-04-25T13:01:19.295Z,7408
2017-04-25T13:02:20.534Z,8604
2017-04-25T13:03:21.918Z,9840
2017-04-25T13:04:23.289Z,9888
2017-04-25T13:05:24.588Z,10272
2017-04-25T13:06:25.832Z,11004
2017-04-25T13:07:27.146Z,9284
2017-04-25T13:08:28.373Z,7696
2017-04-25T13:09:29.618Z,7424
2017-04-25T13:10:30.898Z,6984
2017-04-25T13:11:32.150Z,6004
2017-04-25T13:12:33.360Z,6024
2017-04-25T13:13:34.605Z,6896
2017-04-25T13:14:35.966Z,8152
2017-04-25T13:15:37.231Z,10344
2017-04-25T13:16:38.476Z,12096
2017-04-25T13:17:39.738Z,9620
2017-04-25T13:18:40.972Z,7884
2017-04-25T13:19:42.231Z,7368
2017-04-25T13:20:43.479Z,7232
2017-04-25T13:21:44.823Z,6124
2017-04-25T13:22:46.029Z,5108
2017-04-25T13:23:47.410Z,4856
2017-04-25T13:24:48.656Z,5388
2017-04-25T13:25:49.899Z,6392
2017-04-25T13:26:51.158Z,6136
2017-04-25T13:27:52.402Z,5516
2017-04-25T13:28:53.648Z,5132
2017-04-25T13:29:54.981Z,4728
2017-04-25T13:30:56.175Z,5112
2017-04-25T13:31:57.430Z,5696
2017-04-25T13:32:58.688Z,6264
2017-04-25T13:34:00.034Z,7784
2017-04-25T13:35:01.328Z,9632
2017-04-25T13:36:02.579Z,10828
2017-04-25T13:37:03.835Z,12412
2017-04-25T13:38:05.075Z,12412
2017-04-25T13:39:06.336Z,12528
2017-04-25T13:40:07.567Z,11868
2017-04-25T13:41:08.818Z,9156
2017-04-25T13:42:10.234Z,7540
2017-04-25T13:43:11.396Z,6484
2017-04-25T13:44:12.651Z,5560
2017-04-25T13:45:13.887Z,5228
2017-04-25T13:46:15.181Z,5552
2017-04-25T13:47:16.451Z,5976
2017-04-25T13:48:17.739Z,6512
2017-04-25T13:49:19.060Z,5976
2017-04-25T13:50:20.297Z,4792
2017-04-25T13:51:21.535Z,4464